sensor_id;sensor_type;location;lat;lon;timestamp;pressure;altitude;pressure_sealevel;temperature;humidity
76611;BME280;65503;48.534;9.062;2023-05-10T00:01:58;96386.56;;;15.82;76.75
76611;BME280;65503;48.534;9.062;2023-05-10T00:04:25;96392.97;;;15.76;77.15
76611;BME280;65503;48.534;9.062;2023-05-10T00:06:54;96398.25;;;15.81;76.75
76611;BME280;65503;48.534;9.062;2023-05-10T00:09:21;96396.94;;;15.78;76.86
76611;BME280;65503;48.534;9.062;2023-05-10T00:11:47;96389.31;;;15.66;77.09
76611;BME280;65503;48.534;9.062;2023-05-10T00:14:14;96393.78;;;15.76;76.94
76611;BME280;65503;48.534;9.062;2023-05-10T00:16:40;96399.38;;;15.69;76.95
76611;BME280;65503;48.534;9.062;2023-05-10T00:19:07;96401.59;;;15.57;77.25
76611;BME280;65503;48.534;9.062;2023-05-10T00:21:33;96392.00;;;15.61;77.04
76611;BME280;65503;48.534;9.062;2023-05-10T00:24:00;96399.47;;;15.59;77.18
76611;BME280;65503;48.534;9.062;2023-05-10T00:26:26;96403.19;;;15.58;76.90
76611;BME280;65503;48.534;9.062;2023-05-10T00:28:53;96400.56;;;15.53;77.51
76611;BME280;65503;48.534;9.062;2023-05-10T00:31:19;96406.06;;;15.62;77.03
76611;BME280;65503;48.534;9.062;2023-05-10T00:33:46;96397.63;;;15.55;76.62
76611;BME280;65503;48.534;9.062;2023-05-10T00:36:12;96398.44;;;15.45;76.57
76611;BME280;65503;48.534;9.062;2023-05-10T00:38:38;96404.59;;;15.36;76.64
76611;BME280;65503;48.534;9.062;2023-05-10T00:41:05;96405.91;;;15.33;76.42
76611;BME280;65503;48.534;9.062;2023-05-10T00:43:31;96407.00;;;15.27;76.61
76611;BME280;65503;48.534;9.062;2023-05-10T00:45:58;96412.59;;;15.25;76.81
76611;BME280;65503;48.534;9.062;2023-05-10T00:48:24;96417.31;;;15.34;76.58
76611;BME280;65503;48.534;9.062;2023-05-10T00:50:51;96419.22;;;15.28;76.11
76611;BME280;65503;48.534;9.062;2023-05-10T00:53:18;96422.41;;;15.25;76.81
76611;BME280;65503;48.534;9.062;2023-05-10T00:55:45;96422.13;;;15.26;76.73
76611;BME280;65503;48.534;9.062;2023-05-10T00:58:11;96423.97;;;15.31;76.86
76611;BME280;65503;48.534;9.062;2023-05-10T01:00:41;96419.16;;;15.38;76.61
76611;BME280;65503;48.534;9.062;2023-05-10T01:03:09;96413.31;;;15.41;76.34
76611;BME280;65503;48.534;9.062;2023-05-10T01:05:35;96427.13;;;15.33;76.73
76611;BME280;65503;48.534;9.062;2023-05-10T01:08:02;96420.78;;;15.34;76.46
76611;BME280;65503;48.534;9.062;2023-05-10T01:10:29;96426.06;;;15.34;76.48
76611;BME280;65503;48.534;9.062;2023-05-10T01:12:55;96429.28;;;15.31;76.57
76611;BME280;65503;48.534;9.062;2023-05-10T01:15:23;96434.28;;;15.32;76.52
76611;BME280;65503;48.534;9.062;2023-05-10T01:17:50;96429.31;;;15.21;76.55
76611;BME280;65503;48.534;9.062;2023-05-10T01:20:18;96435.16;;;15.18;76.25
76611;BME280;65503;48.534;9.062;2023-05-10T01:33:55;96442.59;;;15.11;76.17
76611;BME280;65503;48.534;9.062;2023-05-10T01:36:48;96445.81;;;15.08;76.43
76611;BME280;65503;48.534;9.062;2023-05-10T01:39:24;96449.28;;;15.03;76.13
76611;BME280;65503;48.534;9.062;2023-05-10T01:42:02;96450.56;;;15.06;75.78
76611;BME280;65503;48.534;9.062;2023-05-10T01:47:15;96453.22;;;15.06;75.74
76611;BME280;65503;48.534;9.062;2023-05-10T01:49:49;96459.56;;;15.10;75.41
76611;BME280;65503;48.534;9.062;2023-05-10T01:52:18;96456.41;;;15.08;75.25
76611;BME280;65503;48.534;9.062;2023-05-10T01:54:55;96467.00;;;15.08;75.14
76611;BME280;65503;48.534;9.062;2023-05-10T01:57:26;96462.50;;;14.98;75.21
76611;BME280;65503;48.534;9.062;2023-05-10T01:59:54;96463.88;;;14.96;75.38
76611;BME280;65503;48.534;9.062;2023-05-10T02:02:22;96467.81;;;14.98;75.16
76611;BME280;65503;48.534;9.062;2023-05-10T02:04:50;96463.63;;;14.92;75.24
76611;BME280;65503;48.534;9.062;2023-05-10T02:07:19;96469.19;;;14.85;75.22
76611;BME280;65503;48.534;9.062;2023-05-10T02:09:46;96473.41;;;14.81;75.49
76611;BME280;65503;48.534;9.062;2023-05-10T02:12:15;96479.78;;;14.85;75.35
76611;BME280;65503;48.534;9.062;2023-05-10T02:14:42;96480.31;;;14.82;75.18
76611;BME280;65503;48.534;9.062;2023-05-10T02:17:11;96487.22;;;14.78;75.18
76611;BME280;65503;48.534;9.062;2023-05-10T02:19:39;96482.44;;;14.75;74.96
76611;BME280;65503;48.534;9.062;2023-05-10T02:22:07;96491.97;;;14.76;75.17
76611;BME280;65503;48.534;9.062;2023-05-10T02:24:36;96486.44;;;14.73;75.06
76611;BME280;65503;48.534;9.062;2023-05-10T02:27:06;96494.13;;;14.74;75.20
76611;BME280;65503;48.534;9.062;2023-05-10T02:29:33;96489.34;;;14.71;75.06
76611;BME280;65503;48.534;9.062;2023-05-10T02:32:01;96497.84;;;14.63;75.27
76611;BME280;65503;48.534;9.062;2023-05-10T02:34:29;96495.19;;;14.68;75.19
76611;BME280;65503;48.534;9.062;2023-05-10T02:36:56;96496.25;;;14.62;75.37
76611;BME280;65503;48.534;9.062;2023-05-10T02:39:24;96502.34;;;14.63;75.06
76611;BME280;65503;48.534;9.062;2023-05-10T02:41:51;96496.75;;;14.59;75.22
76611;BME280;65503;48.534;9.062;2023-05-10T02:44:19;96495.19;;;14.48;75.31
76611;BME280;65503;48.534;9.062;2023-05-10T02:46:46;96496.78;;;14.49;75.34
76611;BME280;65503;48.534;9.062;2023-05-10T02:49:13;96501.53;;;14.47;74.92
76611;BME280;65503;48.534;9.062;2023-05-10T02:51:44;96492.81;;;14.52;74.86
76611;BME280;65503;48.534;9.062;2023-05-10T02:54:21;96496.78;;;14.49;74.95
76611;BME280;65503;48.534;9.062;2023-05-10T02:56:54;96496.75;;;14.54;75.19
76611;BME280;65503;48.534;9.062;2023-05-10T02:59:23;96504.19;;;14.57;74.20
76611;BME280;65503;48.534;9.062;2023-05-10T03:01:49;96509.47;;;14.47;74.97
76611;BME280;65503;48.534;9.062;2023-05-10T03:04:16;96510.81;;;14.44;75.31
76611;BME280;65503;48.534;9.062;2023-05-10T03:06:43;96508.41;;;14.43;75.20
76611;BME280;65503;48.534;9.062;2023-05-10T03:09:10;96508.41;;;14.38;75.32
76611;BME280;65503;48.534;9.062;2023-05-10T03:14:49;96507.59;;;14.27;75.52
76611;BME280;65503;48.534;9.062;2023-05-10T03:19:56;96502.56;;;14.26;76.27
76611;BME280;65503;48.534;9.062;2023-05-10T03:22:32;96511.84;;;14.28;76.12
76611;BME280;65503;48.534;9.062;2023-05-10T03:25:05;96513.16;;;14.26;75.69
76611;BME280;65503;48.534;9.062;2023-05-10T03:27:32;96513.69;;;14.28;76.31
76611;BME280;65503;48.534;9.062;2023-05-10T03:30:02;96518.97;;;14.23;76.13
76611;BME280;65503;48.534;9.062;2023-05-10T03:32:29;96509.44;;;14.22;76.21
76611;BME280;65503;48.534;9.062;2023-05-10T03:34:58;96515.28;;;14.24;76.33
76611;BME280;65503;48.534;9.062;2023-05-10T03:37:24;96519.50;;;14.30;76.41
76611;BME280;65503;48.534;9.062;2023-05-10T03:39:51;96524.28;;;14.33;76.15
76611;BME280;65503;48.534;9.062;2023-05-10T03:42:17;96517.13;;;14.28;76.17
76611;BME280;65503;48.534;9.062;2023-05-10T03:44:44;96515.78;;;14.31;76.57
76611;BME280;65503;48.534;9.062;2023-05-10T03:47:11;96525.06;;;14.33;76.29
76611;BME280;65503;48.534;9.062;2023-05-10T03:49:37;96522.44;;;14.33;76.07
76611;BME280;65503;48.534;9.062;2023-05-10T03:52:04;96525.59;;;14.30;76.09
76611;BME280;65503;48.534;9.062;2023-05-10T03:54:31;96534.88;;;14.33;76.09
76611;BME280;65503;48.534;9.062;2023-05-10T03:56:58;96532.22;;;14.28;76.22
76611;BME280;65503;48.534;9.062;2023-05-10T03:59:24;96521.09;;;14.31;76.28
76611;BME280;65503;48.534;9.062;2023-05-10T04:01:51;96524.28;;;14.33;76.22
76611;BME280;65503;48.534;9.062;2023-05-10T04:04:18;96520.06;;;14.37;76.17
76611;BME280;65503;48.534;9.062;2023-05-10T04:06:45;96523.25;;;14.39;76.26
76611;BME280;65503;48.534;9.062;2023-05-10T04:09:11;96520.56;;;14.34;76.31
76611;BME280;65503;48.534;9.062;2023-05-10T04:11:38;96523.75;;;14.41;76.18
76611;BME280;65503;48.534;9.062;2023-05-10T04:14:04;96526.94;;;14.58;76.20
76611;BME280;65503;48.534;9.062;2023-05-10T04:16:31;96522.72;;;14.67;75.73
76611;BME280;65503;48.534;9.062;2023-05-10T04:18:57;96529.59;;;14.73;75.25
76611;BME280;65503;48.534;9.062;2023-05-10T04:21:24;96528.53;;;14.79;75.25
76611;BME280;65503;48.534;9.062;2023-05-10T04:23:50;96529.59;;;14.83;75.42
76611;BME280;65503;48.534;9.062;2023-05-10T04:26:17;96527.97;;;14.87;75.64
76611;BME280;65503;48.534;9.062;2023-05-10T04:28:43;96529.31;;;14.90;75.37
76611;BME280;65503;48.534;9.062;2023-05-10T04:31:10;96527.47;;;14.85;75.52
76611;BME280;65503;48.534;9.062;2023-05-10T04:33:36;96537.78;;;14.82;75.52
76611;BME280;65503;48.534;9.062;2023-05-10T04:36:03;96542.84;;;14.83;75.63
76611;BME280;65503;48.534;9.062;2023-05-10T04:38:30;96539.63;;;14.86;75.52
76611;BME280;65503;48.534;9.062;2023-05-10T04:41:07;96546.00;;;14.91;75.51
76611;BME280;65503;48.534;9.062;2023-05-10T04:43:34;96544.94;;;14.97;75.18
76611;BME280;65503;48.534;9.062;2023-05-10T04:46:01;96548.91;;;14.89;75.38
76611;BME280;65503;48.534;9.062;2023-05-10T04:48:27;96541.78;;;14.79;75.79
76611;BME280;65503;48.534;9.062;2023-05-10T04:50:54;96537.53;;;14.78;75.70
76611;BME280;65503;48.534;9.062;2023-05-10T04:53:21;96543.09;;;14.82;75.72
76611;BME280;65503;48.534;9.062;2023-05-10T04:55:47;96548.38;;;14.82;75.85
76611;BME280;65503;48.534;9.062;2023-05-10T04:58:14;96543.91;;;14.52;76.12
76611;BME280;65503;48.534;9.062;2023-05-10T05:00:41;96540.97;;;14.59;75.80
76611;BME280;65503;48.534;9.062;2023-05-10T05:03:08;96548.13;;;14.58;75.94
76611;BME280;65503;48.534;9.062;2023-05-10T05:05:34;96551.84;;;14.57;76.03
76611;BME280;65503;48.534;9.062;2023-05-10T05:08:01;96550.81;;;14.63;75.91
76611;BME280;65503;48.534;9.062;2023-05-10T05:10:27;96553.44;;;14.68;75.77
76611;BME280;65503;48.534;9.062;2023-05-10T05:12:54;96549.75;;;14.69;75.82
76611;BME280;65503;48.534;9.062;2023-05-10T05:15:20;96551.81;;;14.87;75.47
76611;BME280;65503;48.534;9.062;2023-05-10T05:17:47;96559.00;;;14.92;75.32
76611;BME280;65503;48.534;9.062;2023-05-10T05:20:14;96560.84;;;14.92;75.08
76611;BME280;65503;48.534;9.062;2023-05-10T05:22:41;96567.22;;;14.80;75.27
76611;BME280;65503;48.534;9.062;2023-05-10T05:25:07;96559.78;;;14.82;75.26
76611;BME280;65503;48.534;9.062;2023-05-10T05:27:34;96568.78;;;14.86;74.85
76611;BME280;65503;48.534;9.062;2023-05-10T05:30:00;96571.97;;;14.73;74.90
76611;BME280;65503;48.534;9.062;2023-05-10T05:32:27;96570.91;;;14.79;75.21
76611;BME280;65503;48.534;9.062;2023-05-10T05:34:53;96573.03;;;14.77;74.84
76611;BME280;65503;48.534;9.062;2023-05-10T05:37:20;96584.16;;;14.64;75.67
76611;BME280;65503;48.534;9.062;2023-05-10T05:39:48;96580.44;;;14.65;75.64
76611;BME280;65503;48.534;9.062;2023-05-10T05:42:14;96574.63;;;14.63;75.74
76611;BME280;65503;48.534;9.062;2023-05-10T05:44:42;96574.59;;;14.58;75.47
76611;BME280;65503;48.534;9.062;2023-05-10T05:47:09;96579.38;;;14.66;75.65
76611;BME280;65503;48.534;9.062;2023-05-10T05:49:36;96582.59;;;14.63;75.67
76611;BME280;65503;48.534;9.062;2023-05-10T05:52:03;96586.78;;;14.59;75.96
76611;BME280;65503;48.534;9.062;2023-05-10T05:54:31;96583.63;;;14.67;75.87
76611;BME280;65503;48.534;9.062;2023-05-10T05:56:58;96581.53;;;14.79;75.69
76611;BME280;65503;48.534;9.062;2023-05-10T05:59:27;96586.28;;;14.72;75.88
76611;BME280;65503;48.534;9.062;2023-05-10T06:01:53;96590.25;;;14.75;75.85
76611;BME280;65503;48.534;9.062;2023-05-10T06:04:20;96588.94;;;14.57;75.97
76611;BME280;65503;48.534;9.062;2023-05-10T06:06:46;96589.19;;;14.71;75.78
76611;BME280;65503;48.534;9.062;2023-05-10T06:09:13;96597.94;;;14.76;76.20
76611;BME280;65503;48.534;9.062;2023-05-10T06:11:40;96589.44;;;15.00;75.30
76611;BME280;65503;48.534;9.062;2023-05-10T06:14:06;96593.16;;;14.94;75.20
76611;BME280;65503;48.534;9.062;2023-05-10T06:16:34;96594.75;;;14.95;75.10
76611;BME280;65503;48.534;9.062;2023-05-10T06:19:01;96590.00;;;14.92;75.12
76611;BME280;65503;48.534;9.062;2023-05-10T06:21:27;96602.69;;;15.05;75.05
76611;BME280;65503;48.534;9.062;2023-05-10T06:23:54;96611.16;;;15.17;74.80
76611;BME280;65503;48.534;9.062;2023-05-10T06:26:20;96610.09;;;15.18;74.69
76611;BME280;65503;48.534;9.062;2023-05-10T06:28:47;96605.81;;;15.32;74.28
76611;BME280;65503;48.534;9.062;2023-05-10T06:31:14;96617.50;;;15.41;73.76
76611;BME280;65503;48.534;9.062;2023-05-10T06:33:40;96615.34;;;15.58;73.68
76611;BME280;65503;48.534;9.062;2023-05-10T06:36:07;96625.38;;;15.82;73.34
76611;BME280;65503;48.534;9.062;2023-05-10T06:38:33;96625.03;;;15.98;72.54
76611;BME280;65503;48.534;9.062;2023-05-10T06:41:00;96626.41;;;15.86;73.20
76611;BME280;65503;48.534;9.062;2023-05-10T06:43:26;96629.56;;;15.98;72.67
76611;BME280;65503;48.534;9.062;2023-05-10T06:45:54;96632.19;;;16.03;72.15
76611;BME280;65503;48.534;9.062;2023-05-10T06:48:21;96632.41;;;16.06;71.54
76611;BME280;65503;48.534;9.062;2023-05-10T06:50:48;96626.38;;;15.96;71.12
76611;BME280;65503;48.534;9.062;2023-05-10T06:53:14;96627.91;;;16.07;71.29
76611;BME280;65503;48.534;9.062;2023-05-10T06:55:41;96632.69;;;16.10;71.73
76611;BME280;65503;48.534;9.062;2023-05-10T06:58:08;96630.59;;;16.02;71.46
76611;BME280;65503;48.534;9.062;2023-05-10T07:00:34;96631.66;;;15.96;71.89
76611;BME280;65503;48.534;9.062;2023-05-10T07:03:01;96630.09;;;16.00;71.93
76611;BME280;65503;48.534;9.062;2023-05-10T07:05:27;96619.97;;;16.02;71.74
76611;BME280;65503;48.534;9.062;2023-05-10T07:07:54;96625.84;;;15.99;71.63
76611;BME280;65503;48.534;9.062;2023-05-10T07:10:20;96634.81;;;16.08;71.66
76611;BME280;65503;48.534;9.062;2023-05-10T07:12:47;96636.72;;;15.97;70.53
76611;BME280;65503;48.534;9.062;2023-05-10T07:15:14;96633.03;;;15.93;71.27
76611;BME280;65503;48.534;9.062;2023-05-10T07:17:40;96635.97;;;15.82;70.01
76611;BME280;65503;48.534;9.062;2023-05-10T07:20:11;96634.34;;;15.91;70.89
76611;BME280;65503;48.534;9.062;2023-05-10T07:22:38;96641.75;;;15.99;70.99
76611;BME280;65503;48.534;9.062;2023-05-10T07:25:05;96640.97;;;15.98;70.91
76611;BME280;65503;48.534;9.062;2023-05-10T07:27:31;96646.03;;;15.85;70.39
76611;BME280;65503;48.534;9.062;2023-05-10T07:29:58;96643.69;;;15.83;70.58
76611;BME280;65503;48.534;9.062;2023-05-10T07:32:25;96643.09;;;15.96;70.96
76611;BME280;65503;48.534;9.062;2023-05-10T07:34:52;96644.94;;;16.06;70.49
76611;BME280;65503;48.534;9.062;2023-05-10T07:37:18;96638.00;;;16.10;71.03
76611;BME280;65503;48.534;9.062;2023-05-10T07:39:45;96640.47;;;16.40;70.63
76611;BME280;65503;48.534;9.062;2023-05-10T07:42:11;96639.38;;;16.51;71.10
76611;BME280;65503;48.534;9.062;2023-05-10T07:44:38;96643.56;;;16.58;70.06
76611;BME280;65503;48.534;9.062;2023-05-10T07:47:04;96635.63;;;16.63;70.27
76611;BME280;65503;48.534;9.062;2023-05-10T07:49:30;96638.97;;;16.78;69.79
76611;BME280;65503;48.534;9.062;2023-05-10T07:51:57;96637.94;;;16.74;69.83
76611;BME280;65503;48.534;9.062;2023-05-10T07:54:24;96653.00;;;16.84;68.72
76611;BME280;65503;48.534;9.062;2023-05-10T07:56:50;96645.59;;;16.76;68.74
76611;BME280;65503;48.534;9.062;2023-05-10T07:59:17;96648.22;;;16.81;69.41
76611;BME280;65503;48.534;9.062;2023-05-10T08:01:44;96651.34;;;16.93;69.54
76611;BME280;65503;48.534;9.062;2023-05-10T08:04:11;96649.69;;;17.02;68.42
76611;BME280;65503;48.534;9.062;2023-05-10T08:06:39;96646.72;;;17.04;67.29
76611;BME280;65503;48.534;9.062;2023-05-10T08:09:05;96650.97;;;17.05;67.33
76611;BME280;65503;48.534;9.062;2023-05-10T08:11:32;96654.66;;;17.09;67.44
76611;BME280;65503;48.534;9.062;2023-05-10T08:14:00;96650.53;;;17.26;67.38
76611;BME280;65503;48.534;9.062;2023-05-10T08:16:27;96649.50;;;17.22;66.33
76611;BME280;65503;48.534;9.062;2023-05-10T08:18:53;96652.13;;;17.27;65.93
76611;BME280;65503;48.534;9.062;2023-05-10T08:21:21;96653.06;;;17.42;66.49
76611;BME280;65503;48.534;9.062;2023-05-10T08:23:48;96651.38;;;17.51;65.53
76611;BME280;65503;48.534;9.062;2023-05-10T08:26:15;96659.03;;;17.86;65.97
76611;BME280;65503;48.534;9.062;2023-05-10T08:28:41;96657.97;;;17.87;63.98
76611;BME280;65503;48.534;9.062;2023-05-10T08:31:08;96647.13;;;18.02;64.32
76611;BME280;65503;48.534;9.062;2023-05-10T08:33:34;96654.72;;;17.90;63.25
76611;BME280;65503;48.534;9.062;2023-05-10T08:36:01;96661.38;;;18.11;62.79
76611;BME280;65503;48.534;9.062;2023-05-10T08:38:27;96658.88;;;18.44;62.15
76611;BME280;65503;48.534;9.062;2023-05-10T08:40:54;96655.03;;;18.31;61.68
76611;BME280;65503;48.534;9.062;2023-05-10T08:43:26;96656.91;;;18.49;62.64
76611;BME280;65503;48.534;9.062;2023-05-10T08:45:55;96655.16;;;18.82;62.26
76611;BME280;65503;48.534;9.062;2023-05-10T08:48:24;96667.31;;;18.88;60.68
76611;BME280;65503;48.534;9.062;2023-05-10T08:50:53;96664.06;;;18.54;59.98
76611;BME280;65503;48.534;9.062;2023-05-10T08:53:24;96665.97;;;18.30;59.26
76611;BME280;65503;48.534;9.062;2023-05-10T08:55:53;96670.03;;;18.03;57.92
76611;BME280;65503;48.534;9.062;2023-05-10T08:58:19;96671.94;;;17.74;58.91
76611;BME280;65503;48.534;9.062;2023-05-10T09:00:48;96671.25;;;17.29;58.78
76611;BME280;65503;48.534;9.062;2023-05-10T09:03:15;96677.97;;;17.51;61.67
76611;BME280;65503;48.534;9.062;2023-05-10T09:05:41;96678.50;;;17.82;60.69
76611;BME280;65503;48.534;9.062;2023-05-10T09:08:08;96683.84;;;18.05;62.39
76611;BME280;65503;48.534;9.062;2023-05-10T09:10:36;96680.88;;;18.31;60.07
76611;BME280;65503;48.534;9.062;2023-05-10T09:13:03;96682.47;;;18.32;57.04
76611;BME280;65503;48.534;9.062;2023-05-10T09:15:30;96688.94;;;18.26;58.56
76611;BME280;65503;48.534;9.062;2023-05-10T09:17:57;96694.56;;;18.43;58.81
76611;BME280;65503;48.534;9.062;2023-05-10T09:20:25;96693.63;;;18.76;58.26
76611;BME280;65503;48.534;9.062;2023-05-10T09:22:52;96685.66;;;19.09;58.03
76611;BME280;65503;48.534;9.062;2023-05-10T09:25:19;96685.09;;;19.12;54.62
76611;BME280;65503;48.534;9.062;2023-05-10T09:27:46;96685.09;;;19.12;53.97
76611;BME280;65503;48.534;9.062;2023-05-10T09:30:24;96679.84;;;19.39;55.28
76611;BME280;65503;48.534;9.062;2023-05-10T09:32:52;96689.72;;;19.38;56.04
76611;BME280;65503;48.534;9.062;2023-05-10T09:35:21;96691.03;;;19.73;55.75
76611;BME280;65503;48.534;9.062;2023-05-10T09:37:50;96687.84;;;19.71;52.52
76611;BME280;65503;48.534;9.062;2023-05-10T09:40:18;96691.63;;;19.70;51.33
76611;BME280;65503;48.534;9.062;2023-05-10T09:42:53;96691.03;;;19.73;52.52
76611;BME280;65503;48.534;9.062;2023-05-10T09:45:21;96686.69;;;19.64;51.98
76611;BME280;65503;48.534;9.062;2023-05-10T09:47:48;96689.81;;;19.33;49.12
76611;BME280;65503;48.534;9.062;2023-05-10T09:50:14;96689.41;;;19.45;50.41
76611;BME280;65503;48.534;9.062;2023-05-10T09:55:14;96696.47;;;19.36;50.69
76611;BME280;65503;48.534;9.062;2023-05-10T09:57:42;96689.13;;;19.60;50.69
76611;BME280;65503;48.534;9.062;2023-05-10T10:00:08;96689.03;;;19.65;52.56
76611;BME280;65503;48.534;9.062;2023-05-10T10:02:39;96695.72;;;19.82;51.65
76611;BME280;65503;48.534;9.062;2023-05-10T10:05:06;96698.59;;;19.99;50.95
76611;BME280;65503;48.534;9.062;2023-05-10T10:07:33;96698.19;;;19.92;51.70
76611;BME280;65503;48.534;9.062;2023-05-10T10:10:00;96692.63;;;19.88;52.47
76611;BME280;65503;48.534;9.062;2023-05-10T10:12:26;96692.91;;;19.40;53.33
76611;BME280;65503;48.534;9.062;2023-05-10T10:14:54;96699.88;;;19.23;55.00
76611;BME280;65503;48.534;9.062;2023-05-10T10:17:21;96696.59;;;19.26;54.51
76611;BME280;65503;48.534;9.062;2023-05-10T10:19:48;96697.63;;;19.30;55.36
76611;BME280;65503;48.534;9.062;2023-05-10T10:22:16;96691.69;;;19.33;55.67
76611;BME280;65503;48.534;9.062;2023-05-10T10:24:43;96691.59;;;19.38;54.85
76611;BME280;65503;48.534;9.062;2023-05-10T10:30:27;96689.44;;;19.72;53.79
76611;BME280;65503;48.534;9.062;2023-05-10T10:36:01;96683.97;;;20.37;52.63
76611;BME280;65503;48.534;9.062;2023-05-10T10:38:55;96687.41;;;20.87;51.46
76611;BME280;65503;48.534;9.062;2023-05-10T10:41:35;96687.09;;;20.67;50.35
76611;BME280;65503;48.534;9.062;2023-05-10T10:47:22;96685.03;;;20.86;47.47
76611;BME280;65503;48.534;9.062;2023-05-10T10:52:40;96696.22;;;19.97;51.17
76611;BME280;65503;48.534;9.062;2023-05-10T10:55:08;96698.03;;;19.37;51.79
76611;BME280;65503;48.534;9.062;2023-05-10T11:00:30;96700.69;;;17.72;51.35
76611;BME280;65503;48.534;9.062;2023-05-10T11:03:08;96697.06;;;17.63;53.79
76611;BME280;65503;48.534;9.062;2023-05-10T11:05:47;96699.91;;;17.38;52.06
76611;BME280;65503;48.534;9.062;2023-05-10T11:15:56;96713.19;;;17.43;55.39
76611;BME280;65503;48.534;9.062;2023-05-10T11:18:27;96719.47;;;17.52;53.45
76611;BME280;65503;48.534;9.062;2023-05-10T11:21:00;96715.59;;;17.73;53.30
76611;BME280;65503;48.534;9.062;2023-05-10T11:23:33;96724.59;;;17.77;53.43
76611;BME280;65503;48.534;9.062;2023-05-10T11:26:14;96736.19;;;17.62;52.99
76611;BME280;65503;48.534;9.062;2023-05-10T11:28:47;96726.97;;;17.45;51.38
76611;BME280;65503;48.534;9.062;2023-05-10T11:31:16;96735.47;;;16.74;53.75
76611;BME280;65503;48.534;9.062;2023-05-10T11:33:47;96737.19;;;16.39;55.35
76611;BME280;65503;48.534;9.062;2023-05-10T11:36:15;96746.84;;;16.05;57.76
76611;BME280;65503;48.534;9.062;2023-05-10T11:38:43;96739.94;;;16.04;57.09
76611;BME280;65503;48.534;9.062;2023-05-10T11:41:10;96739.44;;;15.97;58.26
76611;BME280;65503;48.534;9.062;2023-05-10T11:43:41;96735.16;;;16.01;60.96
76611;BME280;65503;48.534;9.062;2023-05-10T11:46:10;96733.59;;;15.90;61.29
76611;BME280;65503;48.534;9.062;2023-05-10T11:48:40;96738.41;;;15.83;59.39
76611;BME280;65503;48.534;9.062;2023-05-10T11:51:08;96752.47;;;15.68;60.71
76611;BME280;65503;48.534;9.062;2023-05-10T11:53:35;96748.16;;;16.02;61.32
76611;BME280;65503;48.534;9.062;2023-05-10T11:56:08;96744.91;;;16.31;60.83
76611;BME280;65503;48.534;9.062;2023-05-10T11:58:37;96745.47;;;16.23;59.45
76611;BME280;65503;48.534;9.062;2023-05-10T12:01:05;96742.97;;;16.46;58.91
76611;BME280;65503;48.534;9.062;2023-05-10T12:03:32;96742.78;;;16.92;58.08
76611;BME280;65503;48.534;9.062;2023-05-10T12:05:59;96745.84;;;17.09;55.74
76611;BME280;65503;48.534;9.062;2023-05-10T12:08:27;96742.28;;;16.90;56.88
76611;BME280;65503;48.534;9.062;2023-05-10T12:11:04;96752.91;;;17.68;54.54
76611;BME280;65503;48.534;9.062;2023-05-10T12:13:31;96757.19;;;17.64;53.15
76611;BME280;65503;48.534;9.062;2023-05-10T12:15:58;96748.41;;;17.29;53.95
76611;BME280;65503;48.534;9.062;2023-05-10T12:18:25;96751.63;;;17.60;53.66
76611;BME280;65503;48.534;9.062;2023-05-10T12:20:52;96755.88;;;17.90;52.92
76611;BME280;65503;48.534;9.062;2023-05-10T12:23:20;96752.97;;;18.15;52.32
76611;BME280;65503;48.534;9.062;2023-05-10T12:25:47;96757.38;;;18.01;53.99
76611;BME280;65503;48.534;9.062;2023-05-10T12:28:13;96752.75;;;18.36;53.92
76611;BME280;65503;48.534;9.062;2023-05-10T12:30:40;96754.44;;;18.27;52.66
76611;BME280;65503;48.534;9.062;2023-05-10T12:33:09;96754.56;;;18.16;52.89
76611;BME280;65503;48.534;9.062;2023-05-10T12:35:46;96753.25;;;18.14;54.22
76611;BME280;65503;48.534;9.062;2023-05-10T12:41:03;96754.91;;;18.34;54.51
76611;BME280;65503;48.534;9.062;2023-05-10T12:43:31;96759.78;;;18.27;55.79
76611;BME280;65503;48.534;9.062;2023-05-10T12:45:58;96754.72;;;18.01;54.33
76611;BME280;65503;48.534;9.062;2023-05-10T12:48:24;96752.19;;;18.39;53.12
76611;BME280;65503;48.534;9.062;2023-05-10T12:50:51;96756.75;;;18.62;52.66
76611;BME280;65503;48.534;9.062;2023-05-10T12:53:17;96754.03;;;19.05;49.01
76611;BME280;65503;48.534;9.062;2023-05-10T12:55:45;96755.03;;;19.09;49.39
76611;BME280;65503;48.534;9.062;2023-05-10T12:58:11;96751.72;;;19.17;49.39
76611;BME280;65503;48.534;9.062;2023-05-10T13:00:43;96754.44;;;19.49;49.79
76611;BME280;65503;48.534;9.062;2023-05-10T13:03:10;96739.44;;;19.53;48.14
76611;BME280;65503;48.534;9.062;2023-05-10T13:05:37;96737.72;;;19.76;47.51
76611;BME280;65503;48.534;9.062;2023-05-10T13:08:03;96741.59;;;19.51;46.73
76611;BME280;65503;48.534;9.062;2023-05-10T13:10:30;96743.81;;;19.44;48.57
76611;BME280;65503;48.534;9.062;2023-05-10T13:12:58;96747.91;;;19.23;46.69
76611;BME280;65503;48.534;9.062;2023-05-10T13:15:24;96749.97;;;18.88;47.54
76611;BME280;65503;48.534;9.062;2023-05-10T13:17:52;96747.16;;;18.80;48.46
76611;BME280;65503;48.534;9.062;2023-05-10T13:20:19;96738.47;;;19.12;48.76
76611;BME280;65503;48.534;9.062;2023-05-10T13:22:46;96742.63;;;19.18;48.36
76611;BME280;65503;48.534;9.062;2023-05-10T13:25:12;96742.69;;;19.50;48.47
76611;BME280;65503;48.534;9.062;2023-05-10T13:27:39;96741.25;;;19.71;46.57
76611;BME280;65503;48.534;9.062;2023-05-10T13:30:07;96739.94;;;19.88;45.57
76611;BME280;65503;48.534;9.062;2023-05-10T13:32:33;96737.38;;;20.10;45.48
76611;BME280;65503;48.534;9.062;2023-05-10T13:35:01;96731.69;;;19.84;45.91
76611;BME280;65503;48.534;9.062;2023-05-10T13:37:30;96736.88;;;19.62;44.58
76611;BME280;65503;48.534;9.062;2023-05-10T13:39:56;96735.75;;;19.82;46.95
76611;BME280;65503;48.534;9.062;2023-05-10T13:42:23;96725.50;;;20.02;47.27
76611;BME280;65503;48.534;9.062;2023-05-10T13:44:50;96735.69;;;20.14;47.42
76611;BME280;65503;48.534;9.062;2023-05-10T13:47:16;96733.69;;;20.06;46.78
76611;BME280;65503;48.534;9.062;2023-05-10T13:49:43;96735.59;;;20.05;47.55
76611;BME280;65503;48.534;9.062;2023-05-10T13:52:10;96733.13;;;20.09;47.21